Time;durP1;ratioP1;P1;durP2;ratioP2;P2;SDS_P1;SDS_P2;PMS_P1;PMS_P2;Temp;Humidity;BMP_temperature;BMP_pressure;BME280_temperature;BME280_humidity;BME280_pressure;Samples;Min_cycle;Max_cycle;Signal;HPM_P1;HPM_P2
2021/12/26 00:01:57;;;;;;;25.38;12.20;;;12.10;99.90;;;;;;5029758;28;20040;-74
2021/12/26 00:05:01;;;;;;;17.63;8.18;;;12.00;99.90;;;;;;5030171;28;20146;-75
2021/12/26 00:08:06;;;;;;;22.45;9.88;;;12.10;99.90;;;;;;5030014;28;20393;-75
2021/12/26 00:11:10;;;;;;;19.05;9.68;;;12.00;99.90;;;;;;5029983;28;20045;-75
2021/12/26 00:14:14;;;;;;;19.90;9.20;;;12.00;99.90;;;;;;5029951;28;20045;-75
2021/12/26 00:17:19;;;;;;;24.13;10.55;;;12.00;99.90;;;;;;5030243;28;20048;-75
2021/12/26 00:20:23;;;;;;;22.23;9.90;;;12.00;99.90;;;;;;5029993;28;20052;-75
2021/12/26 00:23:27;;;;;;;19.10;8.55;;;12.00;99.90;;;;;;5030002;28;20044;-75
2021/12/26 00:26:32;;;;;;;16.88;8.10;;;12.00;99.90;;;;;;5030047;28;20048;-75
2021/12/26 00:29:36;;;;;;;17.58;8.00;;;11.90;99.90;;;;;;5029857;28;20505;-75
2021/12/26 00:32:42;;;;;;;16.90;7.20;;;11.90;99.90;;;;;;5029450;28;20049;-75
2021/12/26 00:35:46;;;;;;;15.48;8.48;;;11.90;99.90;;;;;;5030437;28;20060;-75
2021/12/26 00:38:51;;;;;;;13.48;7.32;;;11.90;99.90;;;;;;5030107;28;20045;-75
2021/12/26 00:41:55;;;;;;;28.35;11.73;;;11.80;99.90;;;;;;5030164;28;20053;-75
2021/12/26 00:44:59;;;;;;;18.73;7.25;;;11.90;99.90;;;;;;5029159;28;20413;-75
2021/12/26 00:48:04;;;;;;;24.63;13.80;;;11.80;99.90;;;;;;5029716;28;20068;-75
2021/12/26 00:51:08;;;;;;;21.35;8.80;;;11.80;99.90;;;;;;5029627;28;20052;-75
2021/12/26 00:54:13;;;;;;;11.63;5.93;;;11.80;99.90;;;;;;5029671;28;20056;-75
2021/12/26 00:57:18;;;;;;;16.52;6.35;;;11.80;99.90;;;;;;5028908;28;20048;-75
2021/12/26 01:00:29;;;;;;;11.70;4.97;;;11.70;99.90;;;;;;5029751;28;20060;-75
2021/12/26 01:03:34;;;;;;;10.38;4.72;;;11.70;99.90;;;;;;5028882;28;20052;-74
2021/12/26 01:06:38;;;;;;;10.90;4.38;;;11.70;99.90;;;;;;5029273;28;20056;-74
2021/12/26 01:09:46;;;;;;;12.68;4.20;;;11.70;99.90;;;;;;5029252;28;20052;-75
2021/12/26 01:12:53;;;;;;;8.98;3.90;;;11.60;99.90;;;;;;5029003;28;20037;-73
2021/12/26 01:16:00;;;;;;;9.82;3.60;;;11.60;99.90;;;;;;5028764;28;20044;-74
2021/12/26 01:19:10;;;;;;;5.50;3.78;;;11.60;99.90;;;;;;5028635;28;20048;-75
2021/12/26 01:22:15;;;;;;;10.43;3.97;;;11.60;99.90;;;;;;5017439;28;20045;-75
2021/12/26 01:25:22;;;;;;;10.13;4.18;;;11.60;99.90;;;;;;5030587;28;20120;-75
2021/12/26 01:28:29;;;;;;;10.65;4.25;;;11.60;99.90;;;;;;5033583;28;20045;-75
2021/12/26 01:31:36;;;;;;;11.95;4.50;;;11.60;99.90;;;;;;5032549;28;20645;-75
2021/12/26 01:34:53;;;;;;;12.15;4.20;;;11.60;99.90;;;;;;5032559;28;20052;-75
2021/12/26 01:38:19;;;;;;;12.43;4.38;;;11.60;99.90;;;;;;5031913;28;20048;-75
2021/12/26 01:41:43;;;;;;;11.25;4.15;;;11.60;99.90;;;;;;5033107;28;20056;-75
2021/12/26 01:45:16;;;;;;;9.40;4.65;;;11.60;99.90;;;;;;5019111;28;20499;-75
2021/12/26 01:48:28;;;;;;;10.98;4.63;;;11.60;99.90;;;;;;5031730;28;20400;-76
2021/12/26 01:51:33;;;;;;;9.35;5.15;;;11.60;99.90;;;;;;5031870;28;20507;-75
2021/12/26 01:54:46;;;;;;;12.55;4.95;;;11.60;99.90;;;;;;5032107;28;20041;-75
2021/12/26 01:57:54;;;;;;;14.57;5.07;;;11.60;99.90;;;;;;5031794;28;20049;-76
2021/12/26 02:01:10;;;;;;;9.50;4.50;;;11.50;99.90;;;;;;5032178;28;20053;-75
2021/12/26 02:04:14;;;;;;;13.30;4.80;;;11.60;99.90;;;;;;5031972;28;20045;-75
2021/12/26 02:07:19;;;;;;;13.02;5.28;;;11.60;99.90;;;;;;5032810;28;20392;-75
2021/12/26 02:10:25;;;;;;;12.32;5.68;;;11.50;99.90;;;;;;5020228;28;20041;-76
2021/12/26 02:13:30;;;;;;;8.65;4.97;;;11.50;99.90;;;;;;5032137;28;20272;-76
2021/12/26 02:16:35;;;;;;;15.05;5.70;;;11.50;99.90;;;;;;5031944;28;20045;-75
2021/12/26 02:19:43;;;;;;;13.07;5.90;;;11.40;99.90;;;;;;5031267;28;20044;-76
2021/12/26 02:22:56;;;;;;;13.25;5.43;;;11.40;99.90;;;;;;5031721;28;20040;-76
2021/12/26 02:29:18;;;;;;;7.82;4.45;;;11.40;99.90;;;;;;5031191;28;20346;-76
2021/12/26 02:32:22;;;;;;;10.15;5.00;;;11.40;99.90;;;;;;5031389;28;20049;-75
2021/12/26 02:35:26;;;;;;;8.18;4.50;;;11.40;99.90;;;;;;5031341;28;20044;-75
2021/12/26 02:38:31;;;;;;;10.23;5.20;;;11.40;99.90;;;;;;5031264;28;20483;-76
2021/12/26 02:41:35;;;;;;;16.90;4.53;;;11.30;99.90;;;;;;5031717;28;20664;-76
2021/12/26 02:44:39;;;;;;;9.98;4.97;;;11.30;99.90;;;;;;5031302;28;20044;-76
2021/12/26 02:47:46;;;;;;;9.13;3.97;;;11.30;99.90;;;;;;5031589;28;20056;-76
2021/12/26 02:50:56;;;;;;;10.38;4.55;;;11.30;99.90;;;;;;5031046;28;20053;-76
2021/12/26 02:54:03;;;;;;;;;;;11.30;99.90;;;;;;5031980;28;20044;-76
2021/12/26 02:57:07;;;;;;;10.80;3.88;;;11.30;99.90;;;;;;5031394;28;19916;-76
2021/12/26 03:00:14;;;;;;;9.93;4.32;;;11.30;99.90;;;;;;5031735;28;20060;-76
2021/12/26 03:03:19;;;;;;;9.05;4.00;;;11.30;99.90;;;;;;5031181;28;20056;-76
2021/12/26 03:06:36;;;;;;;14.63;4.45;;;11.40;99.90;;;;;;5030817;28;20052;-76
2021/12/26 03:09:46;;;;;;;10.95;4.10;;;11.40;99.90;;;;;;5031286;28;20048;-76
2021/12/26 03:13:02;;;;;;;6.40;3.75;;;11.40;99.90;;;;;;5030433;28;20396;-76
2021/12/26 03:16:06;;;;;;;9.20;4.35;;;11.40;99.90;;;;;;5030500;28;20041;-76
2021/12/26 03:19:10;;;;;;;11.05;4.05;;;11.50;99.90;;;;;;5029965;28;20047;-76
2021/12/26 03:22:18;;;;;;;9.27;3.70;;;11.50;99.90;;;;;;5031651;28;20052;-76
2021/12/26 03:25:23;;;;;;;7.70;3.80;;;11.40;99.90;;;;;;5031163;28;20056;-76
2021/12/26 03:28:29;;;;;;;10.07;3.90;;;11.50;99.90;;;;;;5030051;28;20074;-76
2021/12/26 03:31:33;;;;;;;7.13;3.97;;;11.50;99.90;;;;;;5030242;28;20048;-76
2021/12/26 03:34:45;;;;;;;11.57;5.55;;;11.40;99.90;;;;;;5030129;28;20049;-76
2021/12/26 03:37:49;;;;;;;;;;;11.30;99.90;;;;;;5030776;28;20048;-76
2021/12/26 03:41:20;;;;;;;18.73;6.85;;;11.30;99.90;;;;;;5021002;28;19920;-76
2021/12/26 03:44:34;;;;;;;19.00;7.63;;;11.20;99.90;;;;;;5030100;28;20500;-76
2021/12/26 03:47:39;;;;;;;9.18;3.53;;;11.20;99.90;;;;;;5029590;28;20081;-76
2021/12/26 03:50:44;;;;;;;7.40;4.03;;;11.20;99.90;;;;;;5030080;28;20041;-76
2021/12/26 03:53:47;;;;;;;16.00;5.25;;;11.20;99.90;;;;;;5030338;28;20052;-76
2021/12/26 03:56:51;;;;;;;6.68;4.10;;;11.20;99.90;;;;;;5029549;28;20056;-76
2021/12/26 04:00:01;;;;;;;7.45;3.50;;;11.20;99.90;;;;;;5029292;28;20045;-76
2021/12/26 04:03:05;;;;;;;8.98;4.03;;;11.20;99.90;;;;;;5029676;28;20052;-76
2021/12/26 04:06:17;;;;;;;9.13;3.92;;;11.20;99.90;;;;;;5018330;28;20036;-76
2021/12/26 04:09:24;;;;;;;15.35;4.00;;;11.30;99.90;;;;;;5029266;28;20423;-76
2021/12/26 04:12:35;;;;;;;9.68;3.80;;;11.30;99.90;;;;;;5029670;28;20048;-76
2021/12/26 04:15:40;;;;;;;11.95;4.15;;;11.30;99.90;;;;;;5029494;28;20044;-76
2021/12/26 04:18:44;;;;;;;13.52;4.07;;;11.40;99.90;;;;;;5028939;28;20048;-75
2021/12/26 04:21:49;;;;;;;8.43;3.50;;;11.40;99.90;;;;;;5029665;28;20515;-75
2021/12/26 04:24:52;;;;;;;9.30;4.20;;;11.40;99.90;;;;;;5017860;28;20048;-75
2021/12/26 04:27:57;;;;;;;9.38;4.13;;;11.40;99.90;;;;;;5017838;28;20409;-75
2021/12/26 04:31:01;;;;;;;18.40;5.20;;;11.30;99.90;;;;;;5029069;28;20503;-75
2021/12/26 04:34:06;;;;;;;8.45;4.90;;;11.30;99.90;;;;;;5030269;28;20381;-75
2021/12/26 04:37:10;;;;;;;11.55;4.80;;;11.30;99.90;;;;;;5029134;28;20495;-75
2021/12/26 04:40:15;;;;;;;13.52;4.63;;;11.30;99.90;;;;;;5029613;28;20053;-75
2021/12/26 04:43:41;;;;;;;10.73;5.05;;;11.30;99.90;;;;;;5029431;28;20072;-75
2021/12/26 04:46:53;;;;;;;12.48;5.90;;;11.30;99.90;;;;;;5029050;28;20121;-75
2021/12/26 04:50:05;;;;;;;13.82;6.03;;;11.30;99.90;;;;;;5028903;28;20404;-75
2021/12/26 04:53:18;;;;;;;17.02;5.53;;;11.30;99.90;;;;;;5028969;28;20116;-75
2021/12/26 04:56:22;;;;;;;8.88;5.32;;;11.30;99.90;;;;;;5028829;28;20053;-75
2021/12/26 04:59:26;;;;;;;13.77;5.10;;;11.40;99.90;;;;;;5017456;28;20044;-75
2021/12/26 05:02:33;;;;;;;9.25;4.55;;;11.40;99.90;;;;;;5033644;28;20066;-75
2021/12/26 05:05:37;;;;;;;12.32;4.82;;;11.40;99.90;;;;;;5033956;28;20048;-75
2021/12/26 05:08:40;;;;;;;13.45;4.25;;;11.40;99.90;;;;;;5033439;28;20057;-75
2021/12/26 05:11:45;;;;;;;10.18;3.60;;;11.40;99.90;;;;;;5033738;28;20048;-75
2021/12/26 05:14:48;;;;;;;7.57;3.65;;;11.40;99.90;;;;;;5032869;28;20049;-75
2021/12/26 05:17:53;;;;;;;12.90;5.55;;;11.40;99.90;;;;;;5033750;28;20060;-75
2021/12/26 05:21:00;;;;;;;9.88;5.22;;;11.20;99.90;;;;;;5033060;28;20058;-75
2021/12/26 05:24:04;;;;;;;8.10;4.85;;;11.10;99.90;;;;;;5032560;28;20072;-75
2021/12/26 05:27:09;;;;;;;9.75;4.88;;;11.10;99.90;;;;;;5032730;28;20052;-75
2021/12/26 05:30:16;;;;;;;14.35;5.40;;;11.10;99.90;;;;;;5032100;28;20048;-74
2021/12/26 05:33:21;;;;;;;10.73;3.92;;;11.10;99.90;;;;;;5032936;28;20052;-75
2021/12/26 05:36:27;;;;;;;12.20;4.28;;;11.10;99.90;;;;;;5033007;28;20044;-75
2021/12/26 05:39:32;;;;;;;7.30;4.10;;;11.00;99.90;;;;;;5032600;28;20499;-74
2021/12/26 05:42:37;;;;;;;13.18;6.30;;;11.00;99.90;;;;;;5032884;28;20068;-74
2021/12/26 05:45:41;;;;;;;15.70;7.00;;;10.90;99.90;;;;;;5032998;28;20392;-74
2021/12/26 05:48:56;;;;;;;18.05;7.22;;;10.80;99.90;;;;;;5032362;28;20355;-74
2021/12/26 05:52:07;;;;;;;17.08;7.53;;;10.70;99.90;;;;;;5032295;28;20503;-74
2021/12/26 05:55:21;;;;;;;83.93;12.32;;;10.80;99.90;;;;;;5032549;28;20056;-74
2021/12/26 05:58:28;;;;;;;14.77;8.73;;;10.60;99.90;;;;;;5032357;28;20048;-74
2021/12/26 06:01:33;;;;;;;16.45;9.50;;;10.60;99.90;;;;;;5032318;28;20527;-74
2021/12/26 06:04:39;;;;;;;18.17;9.13;;;10.60;99.90;;;;;;5032359;28;20048;-74
2021/12/26 06:07:43;;;;;;;17.75;8.90;;;10.70;99.90;;;;;;5032606;28;20056;-74
2021/12/26 06:10:47;;;;;;;14.48;8.82;;;10.70;99.90;;;;;;5032442;28;20060;-75
2021/12/26 06:13:52;;;;;;;16.23;8.75;;;10.70;99.90;;;;;;5031910;28;20044;-74
2021/12/26 06:16:56;;;;;;;16.08;7.90;;;10.80;99.90;;;;;;5031788;28;20064;-74
2021/12/26 06:20:23;;;;;;;14.57;5.90;;;10.80;99.90;;;;;;5032766;28;20040;-74
2021/12/26 06:23:54;;;;;;;10.73;4.50;;;10.90;99.90;;;;;;5030003;28;20392;-75
2021/12/26 06:27:16;;;;;;;19.90;7.10;;;10.90;99.90;;;;;;5032661;28;20048;-73
2021/12/26 06:30:39;;;;;;;737.92;38.78;;;10.90;99.90;;;;;;5032469;28;20040;-74
2021/12/26 06:33:58;;;;;;;755.95;45.53;;;10.70;99.90;;;;;;5032746;28;20052;-74
2021/12/26 06:37:20;;;;;;;506.40;33.45;;;10.50;99.90;;;;;;5032644;28;20045;-74
2021/12/26 06:40:43;;;;;;;89.15;15.45;;;10.50;99.90;;;;;;5032571;28;20388;-74
2021/12/26 06:44:23;;;;;;;24.02;10.18;;;10.60;99.90;;;;;;4992117;28;20054;-74
2021/12/26 06:47:54;;;;;;;19.67;10.63;;;10.60;99.90;;;;;;5032285;28;20036;-74
2021/12/26 06:50:59;;;;;;;19.13;10.80;;;10.60;99.90;;;;;;5031593;28;20045;-74
2021/12/26 06:54:03;;;;;;;18.20;9.80;;;10.70;99.90;;;;;;5032560;28;20045;-74
2021/12/26 06:57:07;;;;;;;20.60;11.43;;;10.70;99.90;;;;;;5032422;28;20041;-74
2021/12/26 07:00:14;;;;;;;23.40;10.40;;;10.60;99.90;;;;;;5032206;28;20048;-75
2021/12/26 07:03:19;;;;;;;22.80;10.80;;;10.70;99.90;;;;;;5032389;28;20045;-74
2021/12/26 07:06:24;;;;;;;19.55;10.80;;;10.70;99.90;;;;;;5031699;28;20040;-74
2021/12/26 07:09:31;;;;;;;21.08;10.05;;;10.60;99.90;;;;;;5031101;28;20044;-74
2021/12/26 07:12:36;;;;;;;21.35;11.20;;;10.70;99.90;;;;;;5030666;28;20064;-74
2021/12/26 07:15:58;;;;;;;;;;;10.70;99.90;;;;;;5032875;28;20044;-74
2021/12/26 07:19:03;;;;;;;63.83;28.25;;;10.70;99.90;;;;;;5030968;28;20367;-74
2021/12/26 07:22:14;;;;;;;72.25;28.80;;;10.70;99.90;;;;;;5030007;28;20228;-75
2021/12/26 07:25:18;;;;;;;41.35;20.15;;;10.70;99.90;;;;;;5030966;28;20048;-74
2021/12/26 07:28:22;;;;;;;35.25;16.80;;;10.70;99.90;;;;;;5031371;28;20045;-74
2021/12/26 07:32:02;;;;;;;37.67;15.88;;;10.70;99.90;;;;;;5031403;28;20053;-74
2021/12/26 07:35:07;;;;;;;17.30;9.90;;;10.60;99.90;;;;;;5030539;28;20041;-73
2021/12/26 07:38:11;;;;;;;36.67;8.55;;;10.50;99.90;;;;;;5030060;28;20056;-73
2021/12/26 07:41:15;;;;;;;966.58;59.20;;;10.50;99.90;;;;;;5030514;28;20045;-73
2021/12/26 07:44:20;;;;;;;744.78;42.30;;;10.50;99.90;;;;;;5030143;28;20048;-73
2021/12/26 07:48:01;;;;;;;43.45;7.00;;;10.30;99.90;;;;;;5030485;28;20129;-73
2021/12/26 08:00:36;;;;;;;10.05;5.32;;;10.40;99.90;;;;;;5031166;28;20044;-73
2021/12/26 08:04:02;;;;;;;46.70;29.90;;;10.40;99.90;;;;;;5030232;28;20044;-74
2021/12/26 08:07:34;;;;;;;55.58;38.53;;;10.50;99.90;;;;;;5018754;28;20040;-73
2021/12/26 08:10:38;;;;;;;15.55;13.15;;;10.50;99.90;;;;;;5029786;28;20041;-74
2021/12/26 08:13:43;;;;;;;10.57;6.72;;;10.50;99.90;;;;;;5029980;28;20045;-73
2021/12/26 08:16:48;;;;;;;6.70;4.53;;;10.50;99.90;;;;;;5031193;28;20059;-74
2021/12/26 08:19:52;;;;;;;9.63;4.10;;;10.50;99.90;;;;;;5029747;28;20040;-74
2021/12/26 08:22:57;;;;;;;7.82;4.50;;;10.50;99.90;;;;;;5030654;28;20036;-73
2021/12/26 08:26:03;;;;;;;13.80;8.50;;;10.50;99.90;;;;;;5030237;28;20056;-73
2021/12/26 08:29:07;;;;;;;7.85;4.88;;;10.50;99.90;;;;;;5030295;28;20053;-74
2021/12/26 08:32:13;;;;;;;9.32;5.10;;;10.50;99.90;;;;;;5029451;28;20064;-74
2021/12/26 08:35:19;;;;;;;5.50;3.67;;;10.50;99.90;;;;;;5030304;28;20072;-74
2021/12/26 08:38:24;;;;;;;7.75;4.88;;;10.50;99.90;;;;;;5030514;28;20535;-75
2021/12/26 08:41:28;;;;;;;2.55;1.30;;;10.40;99.90;;;;;;5030558;28;20036;-74
2021/12/26 08:44:36;;;;;;;4.95;2.50;;;10.40;99.90;;;;;;5029596;28;20052;-74
2021/12/26 08:47:40;;;;;;;4.45;1.75;;;10.40;99.90;;;;;;5030616;28;20040;-73
2021/12/26 08:50:45;;;;;;;3.55;1.60;;;10.40;99.90;;;;;;5030481;28;20044;-73
2021/12/26 08:53:49;;;;;;;2.03;1.35;;;10.40;99.90;;;;;;5030417;28;20393;-73
2021/12/26 08:56:53;;;;;;;6.03;1.55;;;10.40;99.90;;;;;;5030008;28;20032;-73
2021/12/26 08:59:57;;;;;;;4.70;1.30;;;10.40;99.90;;;;;;5029880;28;20048;-73
2021/12/26 09:03:03;;;;;;;2.65;1.80;;;10.40;99.90;;;;;;5029978;28;20044;-73
2021/12/26 09:06:07;;;;;;;3.88;1.98;;;10.20;99.90;;;;;;5030224;28;20487;-74
2021/12/26 09:09:11;;;;;;;4.70;1.73;;;10.20;99.90;;;;;;5029883;28;20396;-73
2021/12/26 09:12:16;;;;;;;3.75;1.60;;;10.20;99.90;;;;;;5029869;28;20041;-74
2021/12/26 09:15:22;;;;;;;5.18;2.53;;;10.30;99.90;;;;;;5030108;28;20048;-73
2021/12/26 09:18:27;;;;;;;7.15;2.13;;;10.30;99.90;;;;;;5029811;28;20045;-73
2021/12/26 09:21:31;;;;;;;8.30;4.93;;;10.30;99.90;;;;;;5029987;28;20064;-73
2021/12/26 09:24:36;;;;;;;27.85;15.90;;;10.20;99.90;;;;;;5029132;28;20056;-74
2021/12/26 09:27:40;;;;;;;38.03;18.83;;;10.20;99.90;;;;;;5029681;28;20068;-74
2021/12/26 09:30:44;;;;;;;30.88;12.80;;;10.30;99.90;;;;;;5029956;28;20400;-73
2021/12/26 09:33:50;;;;;;;10.55;6.55;;;10.30;99.90;;;;;;5030140;28;20044;-73
2021/12/26 09:36:54;;;;;;;4.63;3.50;;;10.30;99.90;;;;;;5029912;28;20459;-73
2021/12/26 09:40:00;;;;;;;7.45;2.72;;;10.40;99.90;;;;;;5028597;28;20047;-73
2021/12/26 09:43:05;;;;;;;5.60;3.15;;;10.40;99.90;;;;;;5029735;28;20048;-73
2021/12/26 09:46:09;;;;;;;8.57;2.70;;;10.40;99.90;;;;;;5031106;28;20040;-73
2021/12/26 09:49:13;;;;;;;3.97;3.15;;;10.40;99.90;;;;;;5032818;28;20052;-74
2021/12/26 09:52:18;;;;;;;25.73;12.82;;;10.40;99.90;;;;;;5032499;28;20404;-73
2021/12/26 09:55:27;;;;;;;20.27;10.60;;;10.40;99.90;;;;;;5033284;28;20040;-73
2021/12/26 09:58:32;;;;;;;17.85;10.35;;;10.50;99.90;;;;;;5032601;28;20044;-73
2021/12/26 10:01:40;;;;;;;33.33;17.02;;;10.50;99.90;;;;;;5032749;28;20733;-73
2021/12/26 10:04:46;;;;;;;78.50;46.25;;;10.60;99.90;;;;;;5033368;28;20380;-73
2021/12/26 10:08:05;;;;;;;30.85;17.35;;;10.80;99.90;;;;;;5033068;28;20095;-73
2021/12/26 10:11:11;;;;;;;11.20;6.90;;;10.90;99.90;;;;;;5033005;28;20048;-74
2021/12/26 10:14:33;;;;;;;6.10;4.03;;;11.00;99.90;;;;;;5032803;28;20044;-73
2021/12/26 10:17:37;;;;;;;11.40;6.93;;;11.00;99.90;;;;;;5033108;28;20388;-73
2021/12/26 10:20:41;;;;;;;15.48;9.05;;;11.10;99.90;;;;;;5032959;28;20052;-72
2021/12/26 10:23:45;;;;;;;8.57;5.53;;;11.20;99.90;;;;;;5032100;28;20052;-73
2021/12/26 10:26:56;;;;;;;6.93;3.47;;;11.30;99.90;;;;;;5033410;28;20044;-73
2021/12/26 10:30:05;;;;;;;11.52;6.28;;;11.40;99.90;;;;;;5032683;28;20380;-73
2021/12/26 10:33:09;;;;;;;6.15;3.63;;;11.60;99.90;;;;;;5032455;28;20049;-72
2021/12/26 10:36:13;;;;;;;6.35;3.67;;;11.90;99.90;;;;;;5032767;28;20396;-73
2021/12/26 10:39:21;;;;;;;11.45;8.23;;;12.10;99.90;;;;;;5031692;28;20041;-73
2021/12/26 10:42:30;;;;;;;6.72;4.50;;;12.50;99.90;;;;;;5031730;28;20504;-73
2021/12/26 10:45:36;;;;;;;6.10;2.45;;;13.20;99.90;;;;;;5032532;28;20044;-73
2021/12/26 10:48:39;;;;;;;13.15;6.35;;;15.20;99.90;;;;;;5032488;28;20048;-74
2021/12/26 10:51:43;;;;;;;4.82;2.70;;;18.60;99.90;;;;;;5032709;28;20064;-71
2021/12/26 10:54:50;;;;;;;3.13;1.52;;;21.60;99.90;;;;;;5032408;28;20044;-72
2021/12/26 10:57:54;;;;;;;40.55;24.05;;;22.90;99.90;;;;;;5031993;28;20040;-72
2021/12/26 11:00:59;;;;;;;4.75;3.75;;;22.50;99.90;;;;;;5032057;28;20052;-72
2021/12/26 11:04:06;;;;;;;42.47;18.27;;;20.90;99.90;;;;;;5032384;28;20044;-72
2021/12/26 11:07:10;;;;;;;12.02;7.40;;;19.30;99.90;;;;;;5032094;28;20084;-74
2021/12/26 11:10:21;;;;;;;17.65;9.57;;;18.10;99.90;;;;;;5031543;28;20048;-74
2021/12/26 11:13:28;;;;;;;9.33;6.00;;;17.20;99.90;;;;;;5032617;28;20044;-74
2021/12/26 11:16:38;;;;;;;6.75;4.90;;;16.60;99.90;;;;;;5031893;28;20048;-74
2021/12/26 11:19:44;;;;;;;2.45;1.70;;;16.30;99.90;;;;;;5030613;28;20404;-73
2021/12/26 11:22:48;;;;;;;3.97;2.35;;;16.10;99.90;;;;;;5031629;28;20053;-73
2021/12/26 11:25:58;;;;;;;3.20;1.98;;;15.30;99.90;;;;;;5031579;28;20056;-73
2021/12/26 11:29:02;;;;;;;4.30;2.10;;;14.00;99.90;;;;;;5031352;28;20042;-73
2021/12/26 11:32:07;;;;;;;5.78;2.42;;;13.80;99.90;;;;;;5031289;28;20037;-73
2021/12/26 11:35:13;;;;;;;4.47;2.22;;;13.80;99.90;;;;;;5031370;28;20048;-73
2021/12/26 11:38:20;;;;;;;3.50;2.00;;;13.10;99.90;;;;;;5031144;28;20380;-73
2021/12/26 11:41:54;;;;;;;5.68;2.58;;;12.80;99.90;;;;;;5030608;28;20511;-73
2021/12/26 11:45:21;;;;;;;3.53;2.47;;;12.90;99.90;;;;;;5030377;28;20499;-73
2021/12/26 11:49:12;;;;;;;3.90;2.03;;;13.10;99.90;;;;;;5030329;28;20041;-73
2021/12/26 11:52:40;;;;;;;7.03;3.15;;;12.80;99.90;;;;;;5030952;28;20048;-73
2021/12/26 11:56:34;;;;;;;8.90;3.13;;;12.70;99.90;;;;;;5030193;28;20056;-73
2021/12/26 11:59:57;;;;;;;5.10;3.40;;;12.50;99.90;;;;;;5030229;28;20062;-74
2021/12/26 12:03:15;;;;;;;5.57;3.63;;;12.40;99.90;;;;;;5031029;28;20384;-73
2021/12/26 12:06:25;;;;;;;3.85;2.60;;;12.40;99.90;;;;;;5031173;28;20049;-73
2021/12/26 12:09:35;;;;;;;4.40;2.80;;;12.00;99.90;;;;;;5029674;28;20044;-73
2021/12/26 12:12:42;;;;;;;5.18;3.38;;;11.80;99.90;;;;;;5030457;28;20104;-73
2021/12/26 12:16:00;;;;;;;11.43;3.70;;;11.80;99.90;;;;;;5030469;28;20048;-73
2021/12/26 12:19:10;;;;;;;5.68;3.85;;;11.80;99.90;;;;;;5030120;28;20028;-73
2021/12/26 12:22:14;;;;;;;4.68;3.45;;;11.70;99.90;;;;;;5030661;28;20056;-73
2021/12/26 12:25:34;;;;;;;4.10;3.42;;;12.00;99.90;;;;;;5030557;28;20056;-73
2021/12/26 12:28:43;;;;;;;5.20;3.97;;;12.20;99.90;;;;;;5030162;28;20056;-73
2021/12/26 12:31:48;;;;;;;5.80;3.75;;;12.50;99.90;;;;;;5030555;28;20048;-73
2021/12/26 12:35:05;;;;;;;7.22;4.85;;;12.80;99.90;;;;;;5030463;28;20060;-73
2021/12/26 12:38:32;;;;;;;4.38;3.28;;;13.10;99.90;;;;;;5029137;28;20045;-73
2021/12/26 12:41:42;;;;;;;6.25;3.70;;;13.30;99.90;;;;;;5030487;28;20056;-74
2021/12/26 12:44:57;;;;;;;7.18;3.13;;;13.60;99.90;;;;;;5030105;28;20053;-73
2021/12/26 12:48:32;;;;;;;7.57;5.38;;;13.20;99.90;;;;;;5029822;28;20040;-74
2021/12/26 12:51:46;;;;;;;27.50;12.88;;;13.20;99.90;;;;;;5030077;28;20049;-73
2021/12/26 12:54:50;;;;;;;34.25;14.73;;;13.20;99.90;;;;;;5030358;28;20044;-73
2021/12/26 12:57:56;;;;;;;9.70;3.60;;;13.10;99.90;;;;;;5030149;28;20120;-74
2021/12/26 13:01:02;;;;;;;15.05;6.20;;;13.00;99.90;;;;;;5030118;28;20048;-74
2021/12/26 13:04:06;;;;;;;5.18;3.08;;;13.00;99.90;;;;;;5030340;28;20032;-74
2021/12/26 13:07:19;;;;;;;6.78;4.47;;;12.90;99.90;;;;;;5029940;28;20307;-74
2021/12/26 13:10:23;;;;;;;6.10;3.72;;;12.60;99.90;;;;;;5029742;28;20045;-74
2021/12/26 13:13:28;;;;;;;4.38;3.42;;;12.60;99.90;;;;;;5029800;28;20045;-74
2021/12/26 13:16:33;;;;;;;6.47;4.03;;;12.40;99.90;;;;;;5029764;28;20060;-74
2021/12/26 13:19:37;;;;;;;4.57;3.10;;;12.30;99.90;;;;;;5029591;28;20506;-74
2021/12/26 13:22:43;;;;;;;4.70;3.60;;;12.10;99.90;;;;;;5034073;28;20052;-74
2021/12/26 13:25:49;;;;;;;6.45;3.70;;;12.30;99.90;;;;;;5033987;28;20045;-74
2021/12/26 13:28:54;;;;;;;6.32;3.85;;;12.10;99.90;;;;;;5033487;28;20056;-74
2021/12/26 13:31:58;;;;;;;6.45;3.97;;;11.80;99.90;;;;;;5034098;28;20048;-74
2021/12/26 13:35:05;;;;;;;3.25;2.53;;;11.80;99.90;;;;;;5034037;28;20051;-74
2021/12/26 13:38:10;;;;;;;6.63;3.83;;;11.80;99.90;;;;;;5033267;28;20108;-74
2021/12/26 13:41:18;;;;;;;29.58;23.20;;;11.90;99.90;;;;;;5033499;28;20044;-74
2021/12/26 13:44:22;;;;;;;15.57;10.80;;;11.90;99.90;;;;;;5033532;28;20044;-73
2021/12/26 13:47:26;;;;;;;16.05;9.05;;;11.90;99.90;;;;;;5033045;28;20042;-73
2021/12/26 13:50:31;;;;;;;8.23;6.38;;;11.80;99.90;;;;;;5033373;28;20048;-73
2021/12/26 13:53:36;;;;;;;14.70;8.93;;;11.70;99.90;;;;;;5032929;28;20041;-73
2021/12/26 13:56:48;;;;;;;10.95;7.30;;;11.50;99.90;;;;;;5033315;28;20041;-73
2021/12/26 13:59:54;;;;;;;10.93;7.60;;;11.40;99.90;;;;;;5032668;28;20049;-73
2021/12/26 14:03:07;;;;;;;11.50;7.72;;;11.20;99.90;;;;;;5033255;28;20048;-73
2021/12/26 14:06:11;;;;;;;12.77;8.63;;;11.00;99.90;;;;;;5032938;28;20045;-73
2021/12/26 14:09:15;;;;;;;15.23;10.95;;;10.80;99.90;;;;;;5032358;28;20486;-73
2021/12/26 14:12:44;;;;;;;14.30;10.35;;;10.70;99.90;;;;;;5032001;28;20092;-73
2021/12/26 14:15:56;;;;;;;11.98;9.38;;;10.70;99.90;;;;;;5033023;28;20048;-73
2021/12/26 14:19:09;;;;;;;15.60;9.35;;;10.80;99.90;;;;;;5032321;28;20497;-73
2021/12/26 14:22:27;;;;;;;11.32;8.02;;;10.80;99.90;;;;;;5032839;28;20636;-73
2021/12/26 14:25:31;;;;;;;13.82;10.57;;;10.90;99.90;;;;;;5032929;28;20045;-73
2021/12/26 14:28:41;;;;;;;12.10;7.93;;;10.80;99.90;;;;;;5032192;28;20056;-73
2021/12/26 14:31:50;;;;;;;16.98;10.75;;;10.80;99.90;;;;;;5032181;28;20060;-73
2021/12/26 14:34:54;;;;;;;23.02;14.68;;;10.80;99.90;;;;;;5032583;28;20117;-72
2021/12/26 14:38:11;;;;;;;17.08;12.43;;;10.60;99.90;;;;;;5032462;28;20036;-73
2021/12/26 14:41:15;;;;;;;16.60;11.20;;;10.60;99.90;;;;;;5032526;28;20041;-72
2021/12/26 14:44:27;;;;;;;10.65;8.60;;;10.50;99.90;;;;;;5032435;28;20045;-72
2021/12/26 14:47:37;;;;;;;12.18;8.23;;;10.40;99.90;;;;;;5031757;28;20048;-72
2021/12/26 14:50:41;;;;;;;13.05;8.20;;;10.30;99.90;;;;;;5032356;28;20503;-73
2021/12/26 14:54:00;;;;;;;12.52;8.98;;;10.30;99.90;;;;;;5032043;28;20519;-73
2021/12/26 14:57:05;;;;;;;14.52;10.73;;;10.40;99.90;;;;;;5032246;28;20044;-73
2021/12/26 15:00:16;;;;;;;15.35;11.60;;;10.40;99.90;;;;;;5031660;28;20064;-72
2021/12/26 15:03:26;;;;;;;18.35;10.07;;;10.30;99.90;;;;;;5032584;28;20487;-73
2021/12/26 15:06:40;;;;;;;;;;;10.40;99.90;;;;;;5032683;28;20207;-73
2021/12/26 15:10:00;;;;;;;14.82;10.98;;;10.50;99.90;;;;;;5031751;28;19920;-73
2021/12/26 15:13:10;;;;;;;15.40;11.43;;;10.40;99.90;;;;;;5031937;28;20037;-73
2021/12/26 15:16:26;;;;;;;12.45;9.55;;;10.30;99.90;;;;;;5032230;28;20412;-72
2021/12/26 15:19:38;;;;;;;12.25;8.88;;;10.20;99.90;;;;;;5031297;28;20396;-73
2021/12/26 15:22:45;;;;;;;15.00;11.30;;;10.20;99.90;;;;;;5031575;28;20048;-73
2021/12/26 15:25:55;;;;;;;22.75;16.00;;;10.20;99.90;;;;;;5031794;28;20503;-73
2021/12/26 15:29:01;;;;;;;21.75;15.65;;;10.10;99.90;;;;;;5031492;28;20044;-73
2021/12/26 15:32:12;;;;;;;23.38;14.48;;;10.20;99.90;;;;;;5031482;28;20045;-73
2021/12/26 15:35:16;;;;;;;17.25;11.43;;;10.20;99.90;;;;;;5030620;28;20074;-73
2021/12/26 15:38:20;;;;;;;13.63;10.38;;;10.20;99.90;;;;;;5030930;28;20048;-73
2021/12/26 15:41:32;;;;;;;25.65;15.13;;;10.20;99.90;;;;;;5031194;28;20502;-73
2021/12/26 15:44:36;;;;;;;15.02;11.00;;;10.20;99.90;;;;;;5030330;28;20205;-73
2021/12/26 15:47:42;;;;;;;21.85;13.38;;;10.20;99.90;;;;;;5030420;28;20052;-73
2021/12/26 15:50:46;;;;;;;15.57;10.88;;;10.20;99.90;;;;;;5031072;28;20052;-73
2021/12/26 15:53:51;;;;;;;18.92;13.32;;;10.30;99.90;;;;;;5030809;28;20045;-73
2021/12/26 15:56:55;;;;;;;18.10;12.90;;;10.30;99.90;;;;;;5030612;28;20388;-74
2021/12/26 15:59:59;;;;;;;25.92;19.42;;;10.30;99.90;;;;;;5030430;28;20037;-73
2021/12/26 16:03:04;;;;;;;29.25;18.60;;;10.20;99.90;;;;;;5030908;28;20068;-73
2021/12/26 16:06:08;;;;;;;35.72;22.50;;;10.20;99.90;;;;;;5030782;28;20068;-73
2021/12/26 16:09:14;;;;;;;34.95;23.58;;;10.20;99.90;;;;;;5030156;28;20048;-74
2021/12/26 16:12:18;;;;;;;30.60;22.60;;;10.20;99.90;;;;;;5030666;28;20045;-73
2021/12/26 16:15:22;;;;;;;33.67;21.35;;;10.10;99.90;;;;;;5030335;28;20036;-72
2021/12/26 16:18:26;;;;;;;46.28;22.35;;;10.10;99.90;;;;;;5030318;28;20053;-73
2021/12/26 16:21:31;;;;;;;34.63;17.73;;;10.10;99.90;;;;;;5030235;28;20050;-73
2021/12/26 16:24:35;;;;;;;24.08;16.83;;;10.10;99.90;;;;;;5030566;28;20056;-73